Cumberland, Iowa
Current Conditions -  °F | °C
As of 3:55 PM on Thursday 27 Nov 2014 (Local Time) from KAIO Reporting Station
Few Clouds Few Clouds  
Wind Chill:   Ceiling: Unl
Heat Index: 16°   Visibility: 10mi
Dew Point:   Wind: 8mph
Humidity: 58%   Direction: 140°SE
Pressure: 30.38"   Gusts: NA
Location:  41.27°N, 94.87°W
Report Text: KAIO 272155Z AUTO 14007KT 10SM FEW050 M09/M16 A3038 RMK AO2
Loading
Personal Weather Stations






























Interactive Weather Map New forecast layout! Learn more

10-Day Weather Forecast

Advertisements
Track Severe Weather on mobile